Terminal Aerodrome Forecast
Issued by NWS

Home | Current Version | Previous Version | Graphics & Text | Print | Product List | Glossary On
Versions: 1 2 3 4 5 6 7 8 9 10 11 12 13 14 15 16 17 18 19 20 21 22 23
000
FTUS43 KGRB 240600 AAA
TAFAUW
TAF AMD
KAUW 240652Z 2407/2506 VRB03KT 1SM -RA BR OVC006
      TEMPO 2407/2409 1/2SM -RA FG OVC004
     FM240900 32005KT 3/4SM -RA BR OVC004
     FM241200 31010KT 1SM -RASN BR OVC005
     FM241500 31012G20KT 1/2SM SN OVC007
     FM242100 31012G20KT 4SM -SN OVC012
     FM250000 30010KT 6SM -SN OVC012=

USA.gov is the U.S. government's official web portal to all federal, state and local government web resources and services.